sensor_id;sensor_type;location;lat;lon;timestamp;temperature;humidity
1716;DHT22;855;48.824;9.220;2022-07-22T00:02:41;22.00;86.70
1716;DHT22;855;48.824;9.220;2022-07-22T00:05:08;22.20;85.80
1716;DHT22;855;48.824;9.220;2022-07-22T00:07:36;22.30;85.30
1716;DHT22;855;48.824;9.220;2022-07-22T00:10:09;22.30;85.00
1716;DHT22;855;48.824;9.220;2022-07-22T00:12:38;22.30;85.00
1716;DHT22;855;48.824;9.220;2022-07-22T00:15:06;22.30;85.20
1716;DHT22;855;48.824;9.220;2022-07-22T00:20:57;22.40;84.60
1716;DHT22;855;48.824;9.220;2022-07-22T00:23:36;22.40;84.60
1716;DHT22;855;48.824;9.220;2022-07-22T00:26:03;22.50;84.40
1716;DHT22;855;48.824;9.220;2022-07-22T00:28:32;22.50;84.40
1716;DHT22;855;48.824;9.220;2022-07-22T00:30:58;22.50;84.50
1716;DHT22;855;48.824;9.220;2022-07-22T00:33:25;22.40;84.90
1716;DHT22;855;48.824;9.220;2022-07-22T00:35:52;22.50;84.80
1716;DHT22;855;48.824;9.220;2022-07-22T00:38:19;22.40;85.00
1716;DHT22;855;48.824;9.220;2022-07-22T00:40:46;22.30;85.70
1716;DHT22;855;48.824;9.220;2022-07-22T00:43:13;22.30;85.80
1716;DHT22;855;48.824;9.220;2022-07-22T00:45:41;22.30;85.60
1716;DHT22;855;48.824;9.220;2022-07-22T00:51:14;22.30;85.00
1716;DHT22;855;48.824;9.220;2022-07-22T00:56:06;22.20;85.60
1716;DHT22;855;48.824;9.220;2022-07-22T00:58:33;22.30;85.40
1716;DHT22;855;48.824;9.220;2022-07-22T01:01:01;22.40;84.60
1716;DHT22;855;48.824;9.220;2022-07-22T01:03:28;22.50;84.40
1716;DHT22;855;48.824;9.220;2022-07-22T01:05:55;22.40;85.00
1716;DHT22;855;48.824;9.220;2022-07-22T01:16:11;21.70;87.80
1716;DHT22;855;48.824;9.220;2022-07-22T01:18:39;21.50;88.70
1716;DHT22;855;48.824;9.220;2022-07-22T01:21:09;21.60;88.70
1716;DHT22;855;48.824;9.220;2022-07-22T01:23:36;21.70;88.10
1716;DHT22;855;48.824;9.220;2022-07-22T01:26:04;21.80;87.70
1716;DHT22;855;48.824;9.220;2022-07-22T01:28:31;22.00;87.00
1716;DHT22;855;48.824;9.220;2022-07-22T01:30:59;22.00;86.70
1716;DHT22;855;48.824;9.220;2022-07-22T01:33:27;22.00;86.60
1716;DHT22;855;48.824;9.220;2022-07-22T01:35:54;21.90;86.50
1716;DHT22;855;48.824;9.220;2022-07-22T01:38:23;21.90;86.20
1716;DHT22;855;48.824;9.220;2022-07-22T01:40:50;21.50;88.10
1716;DHT22;855;48.824;9.220;2022-07-22T01:43:18;21.20;89.70
1716;DHT22;855;48.824;9.220;2022-07-22T01:45:48;21.20;89.80
1716;DHT22;855;48.824;9.220;2022-07-22T01:48:17;21.20;89.70
1716;DHT22;855;48.824;9.220;2022-07-22T01:50:44;21.30;89.30
1716;DHT22;855;48.824;9.220;2022-07-22T01:53:12;21.20;89.00
1716;DHT22;855;48.824;9.220;2022-07-22T01:55:41;20.90;90.10
1716;DHT22;855;48.824;9.220;2022-07-22T01:58:08;20.80;90.40
1716;DHT22;855;48.824;9.220;2022-07-22T02:00:38;20.90;90.20
1716;DHT22;855;48.824;9.220;2022-07-22T02:03:05;21.00;89.70
1716;DHT22;855;48.824;9.220;2022-07-22T02:05:33;21.00;89.70
1716;DHT22;855;48.824;9.220;2022-07-22T02:08:01;21.00;89.50
1716;DHT22;855;48.824;9.220;2022-07-22T02:10:29;21.20;89.10
1716;DHT22;855;48.824;9.220;2022-07-22T02:12:58;21.30;88.50
1716;DHT22;855;48.824;9.220;2022-07-22T02:15:25;21.30;88.10
1716;DHT22;855;48.824;9.220;2022-07-22T02:17:53;21.20;88.10
1716;DHT22;855;48.824;9.220;2022-07-22T02:20:21;21.10;88.70
1716;DHT22;855;48.824;9.220;2022-07-22T02:22:48;21.30;87.90
1716;DHT22;855;48.824;9.220;2022-07-22T02:25:15;21.30;87.30
1716;DHT22;855;48.824;9.220;2022-07-22T02:27:42;21.10;87.70
1716;DHT22;855;48.824;9.220;2022-07-22T02:30:15;20.90;88.30
1716;DHT22;855;48.824;9.220;2022-07-22T02:32:42;21.00;88.60
1716;DHT22;855;48.824;9.220;2022-07-22T02:35:09;21.10;87.70
1716;DHT22;855;48.824;9.220;2022-07-22T02:37:37;21.10;87.70
1716;DHT22;855;48.824;9.220;2022-07-22T02:40:05;20.90;88.20
1716;DHT22;855;48.824;9.220;2022-07-22T02:42:33;20.70;88.70
1716;DHT22;855;48.824;9.220;2022-07-22T02:45:00;20.60;89.80
1716;DHT22;855;48.824;9.220;2022-07-22T02:47:29;20.40;90.30
1716;DHT22;855;48.824;9.220;2022-07-22T02:49:56;20.50;90.50
1716;DHT22;855;48.824;9.220;2022-07-22T02:52:48;20.70;90.20
1716;DHT22;855;48.824;9.220;2022-07-22T02:55:16;20.70;89.50
1716;DHT22;855;48.824;9.220;2022-07-22T02:57:43;20.50;89.70
1716;DHT22;855;48.824;9.220;2022-07-22T03:00:12;20.30;90.80
1716;DHT22;855;48.824;9.220;2022-07-22T03:02:40;20.30;91.30
1716;DHT22;855;48.824;9.220;2022-07-22T03:05:08;20.60;90.70
1716;DHT22;855;48.824;9.220;2022-07-22T03:08:01;20.70;90.10
1716;DHT22;855;48.824;9.220;2022-07-22T03:10:28;20.80;89.10
1716;DHT22;855;48.824;9.220;2022-07-22T03:16:36;21.00;88.60
1716;DHT22;855;48.824;9.220;2022-07-22T03:19:05;21.10;87.90
1716;DHT22;855;48.824;9.220;2022-07-22T03:21:32;21.20;87.70
1716;DHT22;855;48.824;9.220;2022-07-22T03:23:59;21.20;87.50
1716;DHT22;855;48.824;9.220;2022-07-22T03:26:26;21.10;88.10
1716;DHT22;855;48.824;9.220;2022-07-22T03:28:54;20.80;89.10
1716;DHT22;855;48.824;9.220;2022-07-22T03:34:49;20.80;89.70
1716;DHT22;855;48.824;9.220;2022-07-22T03:37:17;21.10;88.60
1716;DHT22;855;48.824;9.220;2022-07-22T03:39:45;21.10;88.30
1716;DHT22;855;48.824;9.220;2022-07-22T03:42:36;21.10;88.10
1716;DHT22;855;48.824;9.220;2022-07-22T03:45:08;21.10;87.90
1716;DHT22;855;48.824;9.220;2022-07-22T03:47:35;21.10;88.20
1716;DHT22;855;48.824;9.220;2022-07-22T03:50:05;21.10;88.10
1716;DHT22;855;48.824;9.220;2022-07-22T03:52:34;21.30;87.40
1716;DHT22;855;48.824;9.220;2022-07-22T03:55:01;21.40;86.90
1716;DHT22;855;48.824;9.220;2022-07-22T03:57:28;21.40;86.50
1716;DHT22;855;48.824;9.220;2022-07-22T03:59:55;21.40;86.40
1716;DHT22;855;48.824;9.220;2022-07-22T04:02:22;21.60;86.00
1716;DHT22;855;48.824;9.220;2022-07-22T04:04:50;21.70;85.30
1716;DHT22;855;48.824;9.220;2022-07-22T04:07:18;21.60;85.40
1716;DHT22;855;48.824;9.220;2022-07-22T04:09:45;21.70;85.20
1716;DHT22;855;48.824;9.220;2022-07-22T04:12:13;21.70;84.90
1716;DHT22;855;48.824;9.220;2022-07-22T04:14:40;21.80;84.60
1716;DHT22;855;48.824;9.220;2022-07-22T04:17:07;21.80;84.40
1716;DHT22;855;48.824;9.220;2022-07-22T04:19:34;21.70;84.40
1716;DHT22;855;48.824;9.220;2022-07-22T04:22:01;21.70;84.50
1716;DHT22;855;48.824;9.220;2022-07-22T04:24:30;21.70;84.20
1716;DHT22;855;48.824;9.220;2022-07-22T04:26:57;21.50;85.00
1716;DHT22;855;48.824;9.220;2022-07-22T04:29:24;21.60;85.00
1716;DHT22;855;48.824;9.220;2022-07-22T04:31:58;21.80;84.60
1716;DHT22;855;48.824;9.220;2022-07-22T04:34:25;21.80;84.10
1716;DHT22;855;48.824;9.220;2022-07-22T04:36:52;21.90;83.70
1716;DHT22;855;48.824;9.220;2022-07-22T04:39:19;21.90;83.40
1716;DHT22;855;48.824;9.220;2022-07-22T04:45:11;22.00;83.00
1716;DHT22;855;48.824;9.220;2022-07-22T04:47:38;22.30;82.80
1716;DHT22;855;48.824;9.220;2022-07-22T04:50:06;22.50;82.40
1716;DHT22;855;48.824;9.220;2022-07-22T04:52:33;22.90;80.30
1716;DHT22;855;48.824;9.220;2022-07-22T04:55:00;23.20;79.30
1716;DHT22;855;48.824;9.220;2022-07-22T04:57:27;23.50;78.00
1716;DHT22;855;48.824;9.220;2022-07-22T04:59:54;23.80;77.10
1716;DHT22;855;48.824;9.220;2022-07-22T05:02:22;24.10;75.10
1716;DHT22;855;48.824;9.220;2022-07-22T05:04:49;24.20;74.10
1716;DHT22;855;48.824;9.220;2022-07-22T05:07:16;24.20;74.30
1716;DHT22;855;48.824;9.220;2022-07-22T05:09:43;24.30;74.10
1716;DHT22;855;48.824;9.220;2022-07-22T05:12:10;24.40;73.40
1716;DHT22;855;48.824;9.220;2022-07-22T05:14:37;24.30;73.10
1716;DHT22;855;48.824;9.220;2022-07-22T05:17:03;24.30;73.90
1716;DHT22;855;48.824;9.220;2022-07-22T05:19:32;24.60;73.00
1716;DHT22;855;48.824;9.220;2022-07-22T05:21:58;24.60;72.60
1716;DHT22;855;48.824;9.220;2022-07-22T05:24:25;24.80;72.20
1716;DHT22;855;48.824;9.220;2022-07-22T05:26:52;24.70;71.90
1716;DHT22;855;48.824;9.220;2022-07-22T05:29:19;24.50;72.50
1716;DHT22;855;48.824;9.220;2022-07-22T05:31:46;24.30;72.70
1716;DHT22;855;48.824;9.220;2022-07-22T05:34:13;24.40;73.00
1716;DHT22;855;48.824;9.220;2022-07-22T05:36:41;24.40;72.60
1716;DHT22;855;48.824;9.220;2022-07-22T05:39:08;24.60;72.20
1716;DHT22;855;48.824;9.220;2022-07-22T05:41:35;24.40;72.30
1716;DHT22;855;48.824;9.220;2022-07-22T05:44:03;24.50;72.50
1716;DHT22;855;48.824;9.220;2022-07-22T05:46:30;24.40;72.30
1716;DHT22;855;48.824;9.220;2022-07-22T05:48:57;24.30;73.10
1716;DHT22;855;48.824;9.220;2022-07-22T05:51:24;24.50;73.10
1716;DHT22;855;48.824;9.220;2022-07-22T05:53:52;24.60;71.60
1716;DHT22;855;48.824;9.220;2022-07-22T05:56:19;24.80;71.00
1716;DHT22;855;48.824;9.220;2022-07-22T05:58:46;24.90;70.80
1716;DHT22;855;48.824;9.220;2022-07-22T06:01:13;24.80;70.50
1716;DHT22;855;48.824;9.220;2022-07-22T06:03:40;25.00;69.70
1716;DHT22;855;48.824;9.220;2022-07-22T06:06:07;25.20;69.30
1716;DHT22;855;48.824;9.220;2022-07-22T06:08:35;25.20;69.80
1716;DHT22;855;48.824;9.220;2022-07-22T06:11:03;25.30;69.80
1716;DHT22;855;48.824;9.220;2022-07-22T06:13:31;25.30;69.20
1716;DHT22;855;48.824;9.220;2022-07-22T06:15:58;25.10;69.20
1716;DHT22;855;48.824;9.220;2022-07-22T06:18:25;24.90;70.50
1716;DHT22;855;48.824;9.220;2022-07-22T06:20:52;25.00;70.10
1716;DHT22;855;48.824;9.220;2022-07-22T06:23:19;25.00;70.20
1716;DHT22;855;48.824;9.220;2022-07-22T06:25:46;25.00;70.60
1716;DHT22;855;48.824;9.220;2022-07-22T06:28:14;25.00;70.20
1716;DHT22;855;48.824;9.220;2022-07-22T06:30:41;25.10;70.10
1716;DHT22;855;48.824;9.220;2022-07-22T06:33:08;25.40;68.90
1716;DHT22;855;48.824;9.220;2022-07-22T06:35:38;25.60;68.20
1716;DHT22;855;48.824;9.220;2022-07-22T06:38:05;25.60;68.90
1716;DHT22;855;48.824;9.220;2022-07-22T06:40:32;25.70;68.40
1716;DHT22;855;48.824;9.220;2022-07-22T06:46:23;25.40;69.00
1716;DHT22;855;48.824;9.220;2022-07-22T06:48:50;25.40;69.60
1716;DHT22;855;48.824;9.220;2022-07-22T06:51:17;25.50;69.30
1716;DHT22;855;48.824;9.220;2022-07-22T06:53:44;25.70;69.20
1716;DHT22;855;48.824;9.220;2022-07-22T06:56:11;25.90;68.20
1716;DHT22;855;48.824;9.220;2022-07-22T06:58:38;26.00;67.50
1716;DHT22;855;48.824;9.220;2022-07-22T07:01:05;26.00;67.20
1716;DHT22;855;48.824;9.220;2022-07-22T07:03:33;26.20;66.10
1716;DHT22;855;48.824;9.220;2022-07-22T07:06:00;26.30;66.30
1716;DHT22;855;48.824;9.220;2022-07-22T07:08:27;26.40;66.30
1716;DHT22;855;48.824;9.220;2022-07-22T07:10:54;26.50;66.10
1716;DHT22;855;48.824;9.220;2022-07-22T07:13:21;26.50;65.50
1716;DHT22;855;48.824;9.220;2022-07-22T07:15:48;26.30;66.30
1716;DHT22;855;48.824;9.220;2022-07-22T07:18:15;26.30;66.50
1716;DHT22;855;48.824;9.220;2022-07-22T07:20:44;26.40;66.10
1716;DHT22;855;48.824;9.220;2022-07-22T07:23:11;26.40;66.30
1716;DHT22;855;48.824;9.220;2022-07-22T07:25:38;26.40;66.70
1716;DHT22;855;48.824;9.220;2022-07-22T07:28:05;26.50;66.30
1716;DHT22;855;48.824;9.220;2022-07-22T07:30:32;26.70;65.90
1716;DHT22;855;48.824;9.220;2022-07-22T07:32:59;26.70;65.60
1716;DHT22;855;48.824;9.220;2022-07-22T07:35:39;26.80;66.00
1716;DHT22;855;48.824;9.220;2022-07-22T07:38:07;26.60;65.70
1716;DHT22;855;48.824;9.220;2022-07-22T07:40:34;26.70;65.60
1716;DHT22;855;48.824;9.220;2022-07-22T07:43:01;26.70;65.50
1716;DHT22;855;48.824;9.220;2022-07-22T07:45:28;26.80;65.30
1716;DHT22;855;48.824;9.220;2022-07-22T07:47:55;26.70;65.90
1716;DHT22;855;48.824;9.220;2022-07-22T07:50:22;26.70;67.10
1716;DHT22;855;48.824;9.220;2022-07-22T07:52:49;27.00;65.20
1716;DHT22;855;48.824;9.220;2022-07-22T07:55:18;27.10;64.70
1716;DHT22;855;48.824;9.220;2022-07-22T07:57:44;27.20;64.30
1716;DHT22;855;48.824;9.220;2022-07-22T08:00:15;27.30;63.90
1716;DHT22;855;48.824;9.220;2022-07-22T08:02:43;27.50;63.90
1716;DHT22;855;48.824;9.220;2022-07-22T08:05:10;27.50;63.90
1716;DHT22;855;48.824;9.220;2022-07-22T08:07:38;27.50;62.20
1716;DHT22;855;48.824;9.220;2022-07-22T08:10:06;27.60;62.20
1716;DHT22;855;48.824;9.220;2022-07-22T08:12:34;27.40;62.60
1716;DHT22;855;48.824;9.220;2022-07-22T08:15:01;27.60;62.70
1716;DHT22;855;48.824;9.220;2022-07-22T08:17:28;27.70;61.90
1716;DHT22;855;48.824;9.220;2022-07-22T08:20:00;27.90;61.40
1716;DHT22;855;48.824;9.220;2022-07-22T08:22:27;28.00;61.40
1716;DHT22;855;48.824;9.220;2022-07-22T08:24:54;28.10;61.20
1716;DHT22;855;48.824;9.220;2022-07-22T08:27:21;28.20;61.00
1716;DHT22;855;48.824;9.220;2022-07-22T08:29:49;28.40;59.90
1716;DHT22;855;48.824;9.220;2022-07-22T08:32:16;28.30;58.80
1716;DHT22;855;48.824;9.220;2022-07-22T08:34:43;28.20;59.30
1716;DHT22;855;48.824;9.220;2022-07-22T08:37:10;28.10;58.50
1716;DHT22;855;48.824;9.220;2022-07-22T08:39:37;28.30;58.90
1716;DHT22;855;48.824;9.220;2022-07-22T08:42:04;28.50;58.00
1716;DHT22;855;48.824;9.220;2022-07-22T08:44:32;28.20;59.00
1716;DHT22;855;48.824;9.220;2022-07-22T08:47:01;27.80;60.40
1716;DHT22;855;48.824;9.220;2022-07-22T08:49:28;27.90;62.30
1716;DHT22;855;48.824;9.220;2022-07-22T08:51:55;28.10;61.90
1716;DHT22;855;48.824;9.220;2022-07-22T08:54:22;28.10;61.80
1716;DHT22;855;48.824;9.220;2022-07-22T08:56:51;28.20;61.10
1716;DHT22;855;48.824;9.220;2022-07-22T08:59:18;28.20;60.80
1716;DHT22;855;48.824;9.220;2022-07-22T09:02:02;28.00;60.30
1716;DHT22;855;48.824;9.220;2022-07-22T09:04:29;28.10;61.40
1716;DHT22;855;48.824;9.220;2022-07-22T09:06:57;28.30;61.00
1716;DHT22;855;48.824;9.220;2022-07-22T09:09:30;28.50;59.90
1716;DHT22;855;48.824;9.220;2022-07-22T09:12:04;28.90;59.40
1716;DHT22;855;48.824;9.220;2022-07-22T09:14:44;28.90;57.70
1716;DHT22;855;48.824;9.220;2022-07-22T09:17:29;28.90;57.40
1716;DHT22;855;48.824;9.220;2022-07-22T09:19:58;28.90;57.40
1716;DHT22;855;48.824;9.220;2022-07-22T09:22:33;29.00;58.40
1716;DHT22;855;48.824;9.220;2022-07-22T09:25:21;29.10;57.30
1716;DHT22;855;48.824;9.220;2022-07-22T09:27:50;29.20;57.70
1716;DHT22;855;48.824;9.220;2022-07-22T09:30:20;29.10;58.30
1716;DHT22;855;48.824;9.220;2022-07-22T09:32:49;28.90;57.80
1716;DHT22;855;48.824;9.220;2022-07-22T09:35:16;28.80;57.80
1716;DHT22;855;48.824;9.220;2022-07-22T09:37:49;28.60;58.70
1716;DHT22;855;48.824;9.220;2022-07-22T09:40:18;28.80;57.90
1716;DHT22;855;48.824;9.220;2022-07-22T09:42:48;29.00;57.90
1716;DHT22;855;48.824;9.220;2022-07-22T09:45:16;29.30;57.20
1716;DHT22;855;48.824;9.220;2022-07-22T09:47:43;29.20;55.90
1716;DHT22;855;48.824;9.220;2022-07-22T09:50:16;29.30;57.80
1716;DHT22;855;48.824;9.220;2022-07-22T09:52:44;29.40;55.80
1716;DHT22;855;48.824;9.220;2022-07-22T09:55:11;29.40;55.20
1716;DHT22;855;48.824;9.220;2022-07-22T09:57:39;29.50;55.90
1716;DHT22;855;48.824;9.220;2022-07-22T10:00:07;29.60;56.20
1716;DHT22;855;48.824;9.220;2022-07-22T10:02:41;29.70;56.30
1716;DHT22;855;48.824;9.220;2022-07-22T10:05:12;29.70;57.20
1716;DHT22;855;48.824;9.220;2022-07-22T10:07:41;30.00;54.70
1716;DHT22;855;48.824;9.220;2022-07-22T10:10:10;30.30;55.00
1716;DHT22;855;48.824;9.220;2022-07-22T10:12:37;30.50;54.30
1716;DHT22;855;48.824;9.220;2022-07-22T10:15:06;30.70;53.70
1716;DHT22;855;48.824;9.220;2022-07-22T10:17:35;30.70;54.30
1716;DHT22;855;48.824;9.220;2022-07-22T10:20:03;30.60;53.40
1716;DHT22;855;48.824;9.220;2022-07-22T10:22:52;30.70;53.80
1716;DHT22;855;48.824;9.220;2022-07-22T10:25:21;30.90;53.60
1716;DHT22;855;48.824;9.220;2022-07-22T10:27:51;31.00;52.90
1716;DHT22;855;48.824;9.220;2022-07-22T10:30:20;31.20;53.30
1716;DHT22;855;48.824;9.220;2022-07-22T10:33:02;31.30;52.70
1716;DHT22;855;48.824;9.220;2022-07-22T10:35:29;31.20;51.90
1716;DHT22;855;48.824;9.220;2022-07-22T10:38:04;31.10;52.40
1716;DHT22;855;48.824;9.220;2022-07-22T10:40:45;30.70;52.20
1716;DHT22;855;48.824;9.220;2022-07-22T10:43:13;30.50;52.90
1716;DHT22;855;48.824;9.220;2022-07-22T10:45:43;30.60;52.80
1716;DHT22;855;48.824;9.220;2022-07-22T10:48:15;30.80;52.10
1716;DHT22;855;48.824;9.220;2022-07-22T10:51:07;30.90;52.30
1716;DHT22;855;48.824;9.220;2022-07-22T10:53:44;30.70;52.70
1716;DHT22;855;48.824;9.220;2022-07-22T10:56:20;30.80;52.60
1716;DHT22;855;48.824;9.220;2022-07-22T10:59:07;31.20;52.10
1716;DHT22;855;48.824;9.220;2022-07-22T11:01:37;31.50;51.80
1716;DHT22;855;48.824;9.220;2022-07-22T11:04:13;31.10;50.90
1716;DHT22;855;48.824;9.220;2022-07-22T11:06:40;31.00;51.80
1716;DHT22;855;48.824;9.220;2022-07-22T11:09:11;31.00;52.60
1716;DHT22;855;48.824;9.220;2022-07-22T11:11:43;31.30;51.10
1716;DHT22;855;48.824;9.220;2022-07-22T11:14:14;31.80;50.70
1716;DHT22;855;48.824;9.220;2022-07-22T11:16:42;31.90;49.90
1716;DHT22;855;48.824;9.220;2022-07-22T11:19:09;32.10;50.30
1716;DHT22;855;48.824;9.220;2022-07-22T11:21:36;32.30;49.30
1716;DHT22;855;48.824;9.220;2022-07-22T11:24:06;32.40;49.20
1716;DHT22;855;48.824;9.220;2022-07-22T11:26:37;32.60;47.90
1716;DHT22;855;48.824;9.220;2022-07-22T11:29:06;32.50;47.70
1716;DHT22;855;48.824;9.220;2022-07-22T11:31:33;32.40;49.10
1716;DHT22;855;48.824;9.220;2022-07-22T11:34:08;32.50;47.90
1716;DHT22;855;48.824;9.220;2022-07-22T11:36:39;32.60;48.20
1716;DHT22;855;48.824;9.220;2022-07-22T11:39:07;32.50;47.30
1716;DHT22;855;48.824;9.220;2022-07-22T11:41:35;32.50;47.60
1716;DHT22;855;48.824;9.220;2022-07-22T11:44:03;32.40;47.20
1716;DHT22;855;48.824;9.220;2022-07-22T11:46:35;32.00;48.60
1716;DHT22;855;48.824;9.220;2022-07-22T11:49:03;32.10;49.20
1716;DHT22;855;48.824;9.220;2022-07-22T11:51:31;32.40;47.90
1716;DHT22;855;48.824;9.220;2022-07-22T11:53:58;32.50;47.20
1716;DHT22;855;48.824;9.220;2022-07-22T11:56:26;32.60;47.10
1716;DHT22;855;48.824;9.220;2022-07-22T11:58:54;32.40;47.60
1716;DHT22;855;48.824;9.220;2022-07-22T12:01:24;31.90;48.30
1716;DHT22;855;48.824;9.220;2022-07-22T12:03:54;31.80;48.40
1716;DHT22;855;48.824;9.220;2022-07-22T12:06:22;32.00;49.40
1716;DHT22;855;48.824;9.220;2022-07-22T12:08:52;32.30;48.60
1716;DHT22;855;48.824;9.220;2022-07-22T12:11:21;32.20;48.60
1716;DHT22;855;48.824;9.220;2022-07-22T12:13:50;32.10;48.60
1716;DHT22;855;48.824;9.220;2022-07-22T12:16:26;32.20;48.20
1716;DHT22;855;48.824;9.220;2022-07-22T12:18:56;32.30;47.20
1716;DHT22;855;48.824;9.220;2022-07-22T12:21:24;32.50;47.90
1716;DHT22;855;48.824;9.220;2022-07-22T12:23:57;32.50;47.20
1716;DHT22;855;48.824;9.220;2022-07-22T12:26:44;32.20;48.30
1716;DHT22;855;48.824;9.220;2022-07-22T12:29:25;32.20;47.80
1716;DHT22;855;48.824;9.220;2022-07-22T12:31:55;32.40;48.20
1716;DHT22;855;48.824;9.220;2022-07-22T12:34:35;32.40;48.70
1716;DHT22;855;48.824;9.220;2022-07-22T12:37:12;32.50;47.10
1716;DHT22;855;48.824;9.220;2022-07-22T12:39:51;32.30;47.50
1716;DHT22;855;48.824;9.220;2022-07-22T12:42:18;32.40;48.20
1716;DHT22;855;48.824;9.220;2022-07-22T12:44:53;32.50;47.50
1716;DHT22;855;48.824;9.220;2022-07-22T12:47:43;32.50;47.50
1716;DHT22;855;48.824;9.220;2022-07-22T12:50:18;32.90;46.60
1716;DHT22;855;48.824;9.220;2022-07-22T12:52:45;33.10;44.50
1716;DHT22;855;48.824;9.220;2022-07-22T12:55:12;33.20;45.00
1716;DHT22;855;48.824;9.220;2022-07-22T12:57:39;33.50;44.50
1716;DHT22;855;48.824;9.220;2022-07-22T13:00:08;33.60;44.60
1716;DHT22;855;48.824;9.220;2022-07-22T13:02:35;33.60;44.30
1716;DHT22;855;48.824;9.220;2022-07-22T13:05:05;33.70;43.60
1716;DHT22;855;48.824;9.220;2022-07-22T13:07:32;33.90;44.60
1716;DHT22;855;48.824;9.220;2022-07-22T13:09:58;33.80;44.00
1716;DHT22;855;48.824;9.220;2022-07-22T13:12:25;33.90;44.70
1716;DHT22;855;48.824;9.220;2022-07-22T13:14:52;34.10;43.80
1716;DHT22;855;48.824;9.220;2022-07-22T13:17:19;33.90;43.80
1716;DHT22;855;48.824;9.220;2022-07-22T13:19:46;34.00;44.00
1716;DHT22;855;48.824;9.220;2022-07-22T13:22:14;34.10;43.80
1716;DHT22;855;48.824;9.220;2022-07-22T13:24:41;34.20;43.80
1716;DHT22;855;48.824;9.220;2022-07-22T13:27:08;34.20;43.80
1716;DHT22;855;48.824;9.220;2022-07-22T13:29:35;34.20;43.10
1716;DHT22;855;48.824;9.220;2022-07-22T13:32:02;34.00;43.50
1716;DHT22;855;48.824;9.220;2022-07-22T13:34:29;33.80;44.00
1716;DHT22;855;48.824;9.220;2022-07-22T13:36:56;33.70;43.30
1716;DHT22;855;48.824;9.220;2022-07-22T13:39:24;33.60;43.10
1716;DHT22;855;48.824;9.220;2022-07-22T13:41:51;33.90;43.80
1716;DHT22;855;48.824;9.220;2022-07-22T13:44:18;34.00;43.80
1716;DHT22;855;48.824;9.220;2022-07-22T13:46:45;34.20;43.20
1716;DHT22;855;48.824;9.220;2022-07-22T13:49:14;34.30;42.30
1716;DHT22;855;48.824;9.220;2022-07-22T13:51:41;34.30;42.00
1716;DHT22;855;48.824;9.220;2022-07-22T13:54:08;34.50;42.50
1716;DHT22;855;48.824;9.220;2022-07-22T13:56:36;34.50;42.20
1716;DHT22;855;48.824;9.220;2022-07-22T13:59:03;34.40;42.70
1716;DHT22;855;48.824;9.220;2022-07-22T14:01:30;34.50;41.60
1716;DHT22;855;48.824;9.220;2022-07-22T14:03:57;34.60;42.20
1716;DHT22;855;48.824;9.220;2022-07-22T14:06:25;34.30;42.10
1716;DHT22;855;48.824;9.220;2022-07-22T14:08:52;33.80;42.60
1716;DHT22;855;48.824;9.220;2022-07-22T14:11:19;33.60;42.50
1716;DHT22;855;48.824;9.220;2022-07-22T14:13:47;33.60;42.50
1716;DHT22;855;48.824;9.220;2022-07-22T14:16:14;33.70;42.30
1716;DHT22;855;48.824;9.220;2022-07-22T14:18:59;33.80;42.30
1716;DHT22;855;48.824;9.220;2022-07-22T14:21:27;33.80;42.00
1716;DHT22;855;48.824;9.220;2022-07-22T14:23:54;34.20;42.50
1716;DHT22;855;48.824;9.220;2022-07-22T14:26:21;34.40;41.20
1716;DHT22;855;48.824;9.220;2022-07-22T14:28:49;34.50;41.40
1716;DHT22;855;48.824;9.220;2022-07-22T14:31:17;34.60;41.80
1716;DHT22;855;48.824;9.220;2022-07-22T14:33:44;34.40;41.00
1716;DHT22;855;48.824;9.220;2022-07-22T14:36:11;34.20;41.60
1716;DHT22;855;48.824;9.220;2022-07-22T14:38:38;34.40;41.60
1716;DHT22;855;48.824;9.220;2022-07-22T14:41:05;34.50;41.60
1716;DHT22;855;48.824;9.220;2022-07-22T14:43:33;34.50;41.60
1716;DHT22;855;48.824;9.220;2022-07-22T14:46:01;34.50;41.00
1716;DHT22;855;48.824;9.220;2022-07-22T14:48:29;34.50;40.90
1716;DHT22;855;48.824;9.220;2022-07-22T14:50:56;34.60;40.70
1716;DHT22;855;48.824;9.220;2022-07-22T14:53:23;34.60;40.20
1716;DHT22;855;48.824;9.220;2022-07-22T14:55:50;34.40;40.40
1716;DHT22;855;48.824;9.220;2022-07-22T14:58:17;34.50;40.90
1716;DHT22;855;48.824;9.220;2022-07-22T15:00:44;34.60;41.60
1716;DHT22;855;48.824;9.220;2022-07-22T15:03:12;34.70;41.60
1716;DHT22;855;48.824;9.220;2022-07-22T15:05:39;34.70;40.20
1716;DHT22;855;48.824;9.220;2022-07-22T15:08:07;34.60;40.50
1716;DHT22;855;48.824;9.220;2022-07-22T15:10:34;34.70;40.40
1716;DHT22;855;48.824;9.220;2022-07-22T15:13:01;34.80;40.20
1716;DHT22;855;48.824;9.220;2022-07-22T15:15:29;34.80;40.90
1716;DHT22;855;48.824;9.220;2022-07-22T15:17:56;34.50;41.20
1716;DHT22;855;48.824;9.220;2022-07-22T15:20:25;34.60;40.50
1716;DHT22;855;48.824;9.220;2022-07-22T15:22:52;34.60;40.50
1716;DHT22;855;48.824;9.220;2022-07-22T15:25:19;34.60;40.60
1716;DHT22;855;48.824;9.220;2022-07-22T15:27:48;34.50;40.00
1716;DHT22;855;48.824;9.220;2022-07-22T15:30:15;34.40;40.20
1716;DHT22;855;48.824;9.220;2022-07-22T15:32:41;34.20;40.50
1716;DHT22;855;48.824;9.220;2022-07-22T15:35:09;34.30;41.00
1716;DHT22;855;48.824;9.220;2022-07-22T15:37:39;34.40;40.50
1716;DHT22;855;48.824;9.220;2022-07-22T15:40:08;34.40;41.00
1716;DHT22;855;48.824;9.220;2022-07-22T15:42:36;34.50;40.50
1716;DHT22;855;48.824;9.220;2022-07-22T15:45:04;34.60;40.40
1716;DHT22;855;48.824;9.220;2022-07-22T15:47:31;34.60;40.00
1716;DHT22;855;48.824;9.220;2022-07-22T15:49:58;34.50;41.00
1716;DHT22;855;48.824;9.220;2022-07-22T15:52:25;34.50;39.70
1716;DHT22;855;48.824;9.220;2022-07-22T15:54:54;34.40;40.40
1716;DHT22;855;48.824;9.220;2022-07-22T15:57:20;34.30;40.00
1716;DHT22;855;48.824;9.220;2022-07-22T16:00:06;34.30;41.40
1716;DHT22;855;48.824;9.220;2022-07-22T16:02:33;34.10;39.20
1716;DHT22;855;48.824;9.220;2022-07-22T16:05:00;34.20;40.10
1716;DHT22;855;48.824;9.220;2022-07-22T16:07:27;34.40;39.40
1716;DHT22;855;48.824;9.220;2022-07-22T16:09:56;34.50;39.50
1716;DHT22;855;48.824;9.220;2022-07-22T16:12:23;34.60;39.20
1716;DHT22;855;48.824;9.220;2022-07-22T16:14:50;34.50;38.70
1716;DHT22;855;48.824;9.220;2022-07-22T16:17:17;34.30;39.20
1716;DHT22;855;48.824;9.220;2022-07-22T16:19:44;34.30;38.90
1716;DHT22;855;48.824;9.220;2022-07-22T16:22:11;34.20;39.40
1716;DHT22;855;48.824;9.220;2022-07-22T16:24:38;34.10;40.10
1716;DHT22;855;48.824;9.220;2022-07-22T16:27:06;34.00;40.00
1716;DHT22;855;48.824;9.220;2022-07-22T16:29:33;33.80;40.40
1716;DHT22;855;48.824;9.220;2022-07-22T16:32:00;34.00;39.60
1716;DHT22;855;48.824;9.220;2022-07-22T16:34:26;34.00;39.70
1716;DHT22;855;48.824;9.220;2022-07-22T16:36:53;34.00;39.70
1716;DHT22;855;48.824;9.220;2022-07-22T16:39:20;34.00;39.90
1716;DHT22;855;48.824;9.220;2022-07-22T16:41:48;34.30;39.00
1716;DHT22;855;48.824;9.220;2022-07-22T16:44:16;34.50;38.70
1716;DHT22;855;48.824;9.220;2022-07-22T16:46:43;34.70;38.90
1716;DHT22;855;48.824;9.220;2022-07-22T16:49:11;34.80;39.40
1716;DHT22;855;48.824;9.220;2022-07-22T16:51:38;34.80;39.40
1716;DHT22;855;48.824;9.220;2022-07-22T16:54:05;34.70;38.70
1716;DHT22;855;48.824;9.220;2022-07-22T16:56:32;34.70;39.20
1716;DHT22;855;48.824;9.220;2022-07-22T16:58:59;34.60;39.20